createdAt,value
2023-01-23T00:01:44.471Z,100.00
2023-01-23T00:04:17.658Z,100.00
2023-01-23T00:06:52.592Z,100.00
2023-01-23T00:09:26.787Z,100.00
2023-01-23T00:12:00.127Z,100.00
2023-01-23T00:14:32.869Z,100.00
2023-01-23T00:17:05.822Z,100.00
2023-01-23T00:19:38.570Z,100.00
2023-01-23T00:22:13.477Z,100.00
2023-01-23T00:24:48.539Z,100.00
2023-01-23T00:27:21.322Z,100.00
2023-01-23T00:29:54.277Z,100.00
2023-01-23T00:32:28.539Z,100.00
2023-01-23T00:35:01.676Z,100.00
2023-01-23T00:37:34.526Z,100.00
2023-01-23T00:40:10.462Z,100.00
2023-01-23T00:42:44.335Z,100.00
2023-01-23T00:45:17.346Z,100.00
2023-01-23T00:47:50.143Z,100.00
2023-01-23T00:50:23.071Z,100.00
2023-01-23T00:52:55.863Z,100.00
2023-01-23T00:55:29.973Z,100.00
2023-01-23T00:58:02.804Z,100.00
2023-01-23T01:00:35.781Z,100.00
2023-01-23T01:03:09.611Z,100.00
2023-01-23T01:05:42.497Z,100.00
2023-01-23T01:08:15.460Z,100.00
2023-01-23T01:10:49.644Z,100.00
2023-01-23T01:13:23.752Z,100.00
2023-01-23T01:15:56.867Z,100.00
2023-01-23T01:18:30.901Z,100.00
2023-01-23T01:21:08.604Z,100.00
2023-01-23T01:23:41.879Z,100.00
2023-01-23T01:26:15.989Z,100.00
2023-01-23T01:28:49.170Z,100.00
2023-01-23T01:31:22.184Z,100.00
2023-01-23T01:33:55.022Z,100.00
2023-01-23T01:36:27.933Z,100.00
2023-01-23T01:39:00.838Z,100.00
2023-01-23T01:41:35.805Z,100.00
2023-01-23T01:44:11.040Z,100.00
2023-01-23T01:46:46.921Z,100.00
2023-01-23T01:49:23.920Z,100.00
2023-01-23T01:52:00.547Z,100.00
2023-01-23T01:54:37.363Z,100.00
2023-01-23T01:57:15.265Z,100.00
2023-01-23T01:59:53.027Z,100.00
2023-01-23T02:02:34.954Z,100.00
2023-01-23T02:05:11.807Z,100.00
2023-01-23T02:07:49.332Z,100.00
2023-01-23T02:10:23.508Z,100.00
2023-01-23T02:13:12.562Z,100.00
2023-01-23T02:15:46.265Z,100.00
2023-01-23T02:18:19.288Z,100.00
2023-01-23T02:20:53.362Z,100.00
2023-01-23T02:23:39.287Z,100.00
2023-01-23T02:26:17.588Z,100.00
2023-01-23T02:28:53.536Z,100.00
2023-01-23T02:31:28.976Z,100.00
2023-01-23T02:34:02.378Z,100.00
2023-01-23T02:36:36.327Z,100.00
2023-01-23T02:39:13.652Z,100.00
2023-01-23T02:41:50.080Z,100.00
2023-01-23T02:44:27.530Z,100.00
2023-01-23T02:47:08.026Z,100.00
2023-01-23T02:49:42.781Z,100.00
2023-01-23T02:52:15.997Z,100.00
2023-01-23T02:54:48.920Z,100.00
2023-01-23T02:57:23.265Z,100.00
2023-01-23T03:00:13.643Z,100.00
2023-01-23T03:02:48.414Z,100.00
2023-01-23T03:05:24.822Z,100.00
2023-01-23T03:07:58.596Z,100.00
2023-01-23T03:10:31.594Z,100.00
2023-01-23T03:13:07.438Z,100.00
2023-01-23T03:15:42.116Z,100.00
2023-01-23T03:18:15.030Z,100.00
2023-01-23T03:20:47.904Z,100.00
2023-01-23T03:23:20.727Z,100.00
2023-01-23T03:25:58.451Z,100.00
2023-01-23T03:28:53.538Z,100.00
2023-01-23T03:31:26.420Z,100.00
2023-01-23T03:33:59.702Z,100.00
2023-01-23T03:36:37.202Z,100.00
2023-01-23T03:39:27.702Z,100.00
2023-01-23T03:42:00.820Z,100.00
2023-01-23T03:44:37.532Z,100.00
2023-01-23T03:47:10.375Z,100.00
2023-01-23T03:49:45.190Z,100.00
2023-01-23T03:52:17.905Z,100.00
2023-01-23T03:54:50.891Z,100.00
2023-01-23T03:57:23.615Z,100.00
2023-01-23T04:00:17.252Z,100.00
2023-01-23T04:03:10.219Z,100.00
2023-01-23T04:05:45.065Z,100.00
2023-01-23T04:08:17.824Z,100.00
2023-01-23T04:10:50.632Z,100.00
2023-01-23T04:13:23.392Z,100.00
2023-01-23T04:15:57.756Z,100.00
2023-01-23T04:18:31.411Z,100.00
2023-01-23T04:21:05.839Z,100.00
2023-01-23T04:23:39.053Z,100.00
2023-01-23T04:26:12.098Z,100.00
2023-01-23T04:28:46.176Z,100.00
2023-01-23T04:31:20.458Z,100.00
2023-01-23T04:33:53.265Z,100.00
2023-01-23T04:36:28.378Z,100.00
2023-01-23T04:39:02.559Z,100.00
2023-01-23T04:41:35.432Z,100.00
2023-01-23T04:44:21.646Z,100.00
2023-01-23T04:47:22.087Z,100.00
2023-01-23T04:49:55.803Z,100.00
2023-01-23T04:52:29.798Z,100.00
2023-01-23T04:55:03.882Z,100.00
2023-01-23T04:57:37.311Z,100.00
2023-01-23T05:00:28.704Z,100.00
2023-01-23T05:03:06.026Z,100.00
2023-01-23T05:05:39.634Z,100.00
2023-01-23T05:08:13.091Z,100.00
2023-01-23T05:10:47.444Z,100.00
2023-01-23T05:13:23.441Z,100.00
2023-01-23T05:15:56.296Z,100.00
2023-01-23T05:18:30.637Z,100.00
2023-01-23T05:21:03.434Z,100.00
2023-01-23T05:23:37.177Z,100.00
2023-01-23T05:26:09.940Z,100.00
2023-01-23T05:28:42.755Z,100.00
2023-01-23T05:31:15.660Z,100.00
2023-01-23T05:34:01.233Z,100.00
2023-01-23T05:36:34.252Z,100.00
2023-01-23T05:39:07.103Z,100.00
2023-01-23T05:41:39.956Z,100.00
2023-01-23T05:44:36.748Z,100.00
2023-01-23T05:47:14.416Z,100.00
2023-01-23T05:49:48.768Z,100.00
2023-01-23T05:52:21.848Z,100.00
2023-01-23T05:54:54.775Z,100.00
2023-01-23T05:57:27.768Z,100.00
2023-01-23T06:00:23.544Z,100.00
2023-01-23T06:03:16.570Z,100.00
2023-01-23T06:06:11.022Z,100.00
2023-01-23T06:08:43.766Z,100.00
2023-01-23T06:11:16.527Z,100.00
2023-01-23T06:13:49.277Z,100.00
2023-01-23T06:16:22.170Z,100.00
2023-01-23T06:18:55.404Z,100.00
2023-01-23T06:21:30.035Z,100.00
2023-01-23T06:24:03.299Z,100.00
2023-01-23T06:26:36.333Z,100.00
2023-01-23T06:29:09.224Z,100.00
2023-01-23T06:31:42.084Z,100.00
2023-01-23T06:34:15.260Z,100.00
2023-01-23T06:37:00.116Z,100.00
2023-01-23T06:39:34.140Z,100.00
2023-01-23T06:42:10.141Z,100.00
2023-01-23T06:44:48.143Z,100.00
2023-01-23T06:47:22.635Z,100.00
2023-01-23T06:50:02.573Z,100.00
2023-01-23T06:52:40.122Z,100.00
2023-01-23T06:55:14.583Z,100.00
2023-01-23T06:57:47.655Z,100.00
2023-01-23T07:00:22.375Z,100.00
2023-01-23T07:02:58.884Z,100.00
2023-01-23T07:05:32.646Z,100.00
2023-01-23T07:08:06.943Z,100.00
2023-01-23T07:10:40.714Z,100.00
2023-01-23T07:13:13.541Z,100.00
2023-01-23T07:15:47.814Z,100.00
2023-01-23T07:18:20.763Z,100.00
2023-01-23T07:20:54.128Z,100.00
2023-01-23T07:23:28.248Z,100.00
2023-01-23T07:26:01.489Z,100.00
2023-01-23T07:28:34.350Z,100.00
2023-01-23T07:31:07.591Z,100.00
2023-01-23T07:33:40.368Z,100.00
2023-01-23T07:36:14.078Z,100.00
2023-01-23T07:38:48.310Z,100.00
2023-01-23T07:41:21.078Z,100.00
2023-01-23T07:43:53.766Z,100.00
2023-01-23T07:46:27.693Z,100.00
2023-01-23T07:49:00.454Z,100.00
2023-01-23T07:51:33.151Z,100.00
2023-01-23T07:54:07.403Z,100.00
2023-01-23T07:56:40.203Z,100.00
2023-01-23T07:59:13.547Z,100.00
2023-01-23T08:01:46.295Z,100.00
2023-01-23T08:04:19.236Z,100.00
2023-01-23T08:06:52.643Z,100.00
2023-01-23T08:09:26.788Z,100.00
2023-01-23T08:11:59.519Z,100.00
2023-01-23T08:14:32.364Z,100.00
2023-01-23T08:17:05.100Z,100.00
2023-01-23T08:19:37.793Z,100.00
2023-01-23T08:22:10.567Z,100.00
2023-01-23T08:24:44.740Z,100.00
2023-01-23T08:27:17.536Z,100.00
2023-01-23T08:29:50.297Z,100.00
2023-01-23T08:32:23.061Z,100.00
2023-01-23T08:34:56.042Z,100.00
2023-01-23T08:37:28.778Z,100.00
2023-01-23T08:40:03.036Z,100.00
2023-01-23T08:42:35.796Z,100.00
2023-01-23T08:45:09.612Z,100.00
2023-01-23T08:47:42.383Z,100.00
2023-01-23T08:50:15.379Z,100.00
2023-01-23T08:52:48.129Z,100.00
2023-01-23T08:55:22.358Z,100.00
2023-01-23T08:57:55.156Z,100.00
2023-01-23T09:00:28.009Z,100.00
2023-01-23T09:03:00.850Z,100.00
2023-01-23T09:05:33.908Z,100.00
2023-01-23T09:08:06.753Z,100.00
2023-01-23T09:10:40.855Z,100.00
2023-01-23T09:13:14.498Z,100.00
2023-01-23T09:15:47.845Z,100.00
2023-01-23T09:18:22.805Z,100.00
2023-01-23T09:20:56.238Z,100.00
2023-01-23T09:23:29.035Z,100.00
2023-01-23T09:26:06.507Z,100.00
2023-01-23T09:28:42.405Z,100.00
2023-01-23T09:31:15.574Z,100.00
2023-01-23T09:33:49.675Z,100.00
2023-01-23T09:36:37.591Z,100.00
2023-01-23T09:39:14.805Z,100.00
2023-01-23T09:41:50.036Z,100.00
2023-01-23T09:44:28.179Z,100.00
2023-01-23T09:47:07.453Z,100.00
2023-01-23T09:49:45.758Z,100.00
2023-01-23T09:52:22.316Z,100.00
2023-01-23T09:54:59.021Z,100.00
2023-01-23T09:57:37.860Z,100.00
2023-01-23T10:00:16.539Z,100.00
2023-01-23T10:02:49.388Z,100.00
2023-01-23T10:05:35.501Z,100.00
2023-01-23T10:08:22.948Z,100.00
2023-01-23T10:11:04.438Z,100.00
2023-01-23T10:14:01.027Z,100.00
2023-01-23T10:16:55.521Z,100.00
2023-01-23T10:19:54.003Z,100.00
2023-01-23T10:22:36.094Z,100.00
2023-01-23T10:25:15.465Z,100.00
2023-01-23T10:27:50.691Z,100.00
2023-01-23T10:30:29.731Z,100.00
2023-01-23T10:33:10.983Z,100.00
2023-01-23T10:35:50.816Z,100.00
2023-01-23T10:38:28.207Z,100.00
2023-01-23T10:41:21.688Z,100.00
2023-01-23T10:43:57.007Z,100.00
2023-01-23T10:46:35.491Z,100.00
2023-01-23T10:49:08.341Z,100.00
2023-01-23T10:51:48.720Z,100.00
2023-01-23T10:54:31.922Z,100.00
2023-01-23T10:57:22.806Z,100.00
2023-01-23T10:59:58.035Z,100.00
2023-01-23T11:02:34.617Z,100.00
2023-01-23T11:05:46.891Z,100.00
2023-01-23T11:08:27.454Z,100.00
2023-01-23T11:11:22.761Z,100.00
2023-01-23T11:14:07.323Z,100.00
2023-01-23T11:16:40.542Z,100.00
2023-01-23T11:19:21.754Z,100.00
2023-01-23T11:21:56.909Z,100.00
2023-01-23T11:24:40.815Z,100.00
2023-01-23T11:27:20.225Z,100.00
2023-01-23T11:30:29.930Z,100.00
2023-01-23T11:33:13.455Z,100.00
2023-01-23T11:36:01.868Z,100.00
2023-01-23T11:38:47.996Z,100.00
2023-01-23T11:41:29.452Z,100.00
2023-01-23T11:44:07.851Z,100.00
2023-01-23T11:46:58.429Z,100.00
2023-01-23T11:49:41.077Z,100.00
2023-01-23T11:52:32.236Z,100.00
2023-01-23T11:55:19.995Z,100.00
2023-01-23T11:58:05.576Z,100.00
2023-01-23T12:00:43.583Z,100.00
2023-01-23T12:03:37.555Z,100.00
2023-01-23T12:06:29.777Z,100.00
2023-01-23T12:09:12.245Z,100.00
2023-01-23T12:12:05.506Z,100.00
2023-01-23T12:14:48.758Z,100.00
2023-01-23T12:19:51.614Z,100.00
2023-01-23T12:21:33.679Z,99.04
2023-01-23T12:24:19.260Z,98.80
2023-01-23T12:27:01.346Z,98.74
2023-01-23T12:30:13.641Z,97.98
2023-01-23T12:32:58.468Z,97.15
2023-01-23T12:35:36.753Z,96.23
2023-01-23T12:38:25.079Z,94.96
2023-01-23T12:41:14.080Z,94.04
2023-01-23T12:43:54.229Z,93.49
2023-01-23T12:46:35.231Z,94.16
2023-01-23T12:49:20.167Z,95.41
2023-01-23T12:51:58.924Z,95.68
2023-01-23T12:54:38.269Z,95.87
2023-01-23T12:57:14.279Z,94.30
2023-01-23T12:59:59.176Z,93.80
2023-01-23T13:02:39.927Z,92.21
2023-01-23T13:05:20.602Z,91.33
2023-01-23T13:08:01.751Z,90.97
2023-01-23T13:11:08.695Z,92.25
2023-01-23T13:13:46.155Z,92.97
2023-01-23T13:16:20.643Z,92.27
2023-01-23T13:19:13.360Z,91.39
2023-01-23T13:22:05.210Z,91.11
2023-01-23T13:25:03.256Z,90.72
2023-01-23T13:27:45.812Z,90.39
2023-01-23T13:30:45.224Z,90.14
2023-01-23T13:33:52.192Z,89.48
2023-01-23T13:36:38.717Z,89.03
2023-01-23T13:39:23.974Z,90.31
2023-01-23T13:42:33.286Z,90.21
2023-01-23T13:45:30.871Z,89.48
2023-01-23T14:21:02.908Z,89.35
2023-01-23T14:23:39.841Z,89.11
2023-01-23T14:26:17.518Z,89.13
2023-01-23T14:28:57.398Z,89.75
2023-01-23T14:31:31.992Z,89.87
2023-01-23T14:34:10.624Z,90.64
2023-01-23T14:36:47.598Z,91.56
2023-01-23T14:39:24.532Z,90.86
2023-01-23T14:42:02.281Z,91.85
2023-01-23T14:44:44.116Z,92.22
2023-01-23T14:47:21.584Z,92.04
2023-01-23T14:49:55.478Z,92.69
2023-01-23T14:52:30.454Z,92.71
2023-01-23T14:55:08.095Z,93.34
2023-01-23T14:57:41.451Z,93.98
2023-01-23T15:00:19.077Z,93.95
2023-01-23T15:02:54.242Z,94.27
2023-01-23T15:05:28.578Z,93.89
2023-01-23T15:08:04.139Z,94.40
2023-01-23T15:10:48.861Z,94.93
2023-01-23T15:13:24.995Z,94.40
2023-01-23T15:16:00.846Z,94.46
2023-01-23T15:18:35.980Z,94.74
2023-01-23T15:21:09.978Z,94.54
2023-01-23T15:24:01.149Z,95.44
2023-01-23T15:26:36.929Z,95.28
2023-01-23T15:29:20.440Z,95.93
2023-01-23T15:31:54.479Z,95.54
2023-01-23T15:34:31.287Z,95.57
2023-01-23T15:37:06.850Z,95.58
2023-01-23T15:39:49.716Z,95.81
2023-01-23T15:42:30.293Z,95.77
2023-01-23T15:45:03.873Z,96.36
2023-01-23T15:47:36.617Z,96.25
2023-01-23T15:50:13.820Z,96.32
2023-01-23T15:52:48.701Z,96.37
2023-01-23T15:55:24.475Z,96.60
2023-01-23T15:57:58.686Z,96.99
2023-01-23T16:00:31.453Z,97.38
2023-01-23T16:03:04.475Z,97.70
2023-01-23T16:05:38.474Z,97.48
2023-01-23T16:08:20.169Z,97.45
2023-01-23T16:10:52.940Z,97.68
2023-01-23T16:13:26.980Z,98.17
2023-01-23T16:15:59.728Z,98.22
2023-01-23T16:18:32.623Z,98.65
2023-01-23T16:21:05.903Z,98.50
2023-01-23T16:23:47.318Z,98.35
2023-01-23T16:26:22.827Z,98.97
2023-01-23T16:29:08.702Z,99.44
2023-01-23T16:31:46.135Z,99.62
2023-01-23T16:34:18.943Z,99.53
2023-01-23T16:36:54.727Z,100.00
2023-01-23T16:39:28.980Z,100.00
2023-01-23T16:42:02.124Z,100.00
2023-01-23T16:44:36.178Z,100.00
2023-01-23T16:47:09.032Z,100.00
2023-01-23T16:49:57.252Z,100.00
2023-01-23T16:52:30.206Z,100.00
2023-01-23T16:55:06.428Z,100.00
2023-01-23T16:57:39.346Z,100.00
2023-01-23T17:00:19.088Z,100.00
2023-01-23T17:02:57.750Z,100.00
2023-01-23T17:05:30.601Z,100.00
2023-01-23T17:08:16.962Z,100.00
2023-01-23T17:10:52.417Z,100.00
2023-01-23T17:13:25.753Z,100.00
2023-01-23T17:16:01.341Z,100.00
2023-01-23T17:18:37.264Z,100.00
2023-01-23T17:21:17.979Z,100.00
2023-01-23T17:23:50.852Z,100.00
2023-01-23T17:26:23.619Z,100.00
2023-01-23T17:28:56.430Z,100.00
2023-01-23T17:31:32.511Z,100.00
2023-01-23T17:34:06.400Z,100.00
2023-01-23T17:36:39.204Z,100.00
2023-01-23T17:39:12.881Z,100.00
2023-01-23T17:41:45.643Z,100.00
2023-01-23T17:44:18.376Z,100.00
2023-01-23T17:46:54.655Z,100.00
2023-01-23T17:50:20.770Z,100.00
2023-01-23T17:53:19.391Z,100.00
2023-01-23T17:55:52.945Z,100.00
2023-01-23T17:58:25.982Z,100.00
2023-01-23T18:00:59.503Z,100.00
2023-01-23T18:03:36.330Z,100.00
2023-01-23T18:06:09.090Z,100.00
2023-01-23T18:08:42.351Z,100.00
2023-01-23T18:11:18.775Z,100.00
2023-01-23T18:14:18.101Z,100.00
2023-01-23T18:16:51.431Z,100.00
2023-01-23T18:19:27.490Z,100.00
2023-01-23T18:22:00.865Z,100.00
2023-01-23T18:24:35.099Z,100.00
2023-01-23T18:27:19.992Z,100.00
2023-01-23T18:30:17.770Z,100.00
2023-01-23T18:33:07.870Z,100.00
2023-01-23T18:35:57.989Z,100.00
2023-01-23T18:38:42.051Z,100.00
2023-01-23T18:41:22.388Z,100.00
2023-01-23T18:43:58.339Z,100.00
2023-01-23T18:46:31.562Z,100.00
2023-01-23T18:49:04.887Z,99.60
2023-01-23T18:51:47.854Z,100.00
2023-01-23T18:54:30.757Z,99.91
2023-01-23T18:57:19.351Z,100.00
2023-01-23T19:00:04.618Z,99.73
2023-01-23T19:02:46.616Z,99.67
2023-01-23T19:05:25.034Z,99.85
2023-01-23T19:08:00.851Z,99.89
2023-01-23T19:10:48.082Z,100.00
2023-01-23T19:13:25.607Z,99.73
2023-01-23T19:16:05.580Z,100.00
2023-01-23T19:18:47.440Z,100.00
2023-01-23T19:21:23.645Z,100.00
2023-01-23T19:24:00.158Z,100.00
2023-01-23T19:26:35.209Z,100.00
2023-01-23T19:29:20.906Z,100.00
2023-01-23T19:32:04.690Z,100.00
2023-01-23T19:34:38.127Z,100.00
2023-01-23T19:37:11.064Z,100.00
2023-01-23T19:39:45.237Z,100.00
2023-01-23T19:42:18.010Z,100.00
2023-01-23T19:44:50.872Z,100.00
2023-01-23T19:47:23.631Z,100.00
2023-01-23T19:49:56.399Z,100.00
2023-01-23T19:52:29.190Z,100.00
2023-01-23T19:55:03.385Z,100.00
2023-01-23T19:57:36.119Z,100.00
2023-01-23T20:00:14.120Z,100.00
2023-01-23T20:02:47.121Z,100.00
2023-01-23T20:05:20.795Z,100.00
2023-01-23T20:07:54.842Z,100.00
2023-01-23T20:10:29.095Z,100.00
2023-01-23T20:13:02.588Z,100.00
2023-01-23T20:15:35.418Z,100.00
2023-01-23T20:18:08.234Z,100.00
2023-01-23T20:20:41.127Z,100.00
2023-01-23T20:23:14.470Z,100.00
2023-01-23T20:25:57.749Z,100.00
2023-01-23T20:28:30.953Z,100.00
2023-01-23T20:31:08.999Z,100.00
2023-01-23T20:33:41.852Z,100.00
2023-01-23T20:36:15.905Z,100.00
2023-01-23T20:38:48.965Z,99.88
2023-01-23T20:41:23.527Z,99.57
2023-01-23T20:43:56.298Z,99.46
2023-01-23T20:46:29.228Z,99.94
2023-01-23T20:49:02.630Z,99.47
2023-01-23T20:51:35.442Z,98.98
2023-01-23T20:54:07.291Z,99.38
2023-01-23T20:56:41.352Z,99.00
2023-01-23T20:59:19.127Z,99.33
2023-01-23T21:02:09.846Z,98.83
2023-01-23T21:04:43.306Z,98.81
2023-01-23T21:07:20.488Z,98.89
2023-01-23T21:09:53.384Z,98.76
2023-01-23T21:12:27.671Z,98.93
2023-01-23T21:15:00.936Z,98.97
2023-01-23T21:17:33.721Z,99.65
2023-01-23T21:20:07.625Z,99.23
2023-01-23T21:22:40.406Z,99.42
2023-01-23T21:25:13.179Z,99.36
2023-01-23T21:27:47.321Z,99.45
2023-01-23T21:30:20.174Z,99.52
2023-01-23T21:32:52.947Z,99.26
2023-01-23T21:35:25.689Z,99.18
2023-01-23T21:37:58.966Z,98.88
2023-01-23T21:40:31.718Z,99.13
2023-01-23T21:43:05.865Z,98.65
2023-01-23T21:45:38.655Z,98.79
2023-01-23T21:48:13.299Z,98.90
2023-01-23T21:50:46.037Z,98.93
2023-01-23T21:53:18.852Z,99.08
2023-01-23T21:55:52.820Z,99.19
2023-01-23T21:58:26.905Z,99.29
2023-01-23T22:01:18.923Z,98.84
2023-01-23T22:03:52.494Z,98.88
2023-01-23T22:06:25.539Z,99.40
2023-01-23T22:08:58.995Z,99.09
2023-01-23T22:11:32.064Z,98.91
2023-01-23T22:14:06.202Z,98.38
2023-01-23T22:16:49.018Z,98.21
2023-01-23T22:19:25.541Z,98.26
2023-01-23T22:21:58.695Z,98.35
2023-01-23T22:24:31.625Z,98.83
2023-01-23T22:27:04.824Z,98.70
2023-01-23T22:29:38.969Z,98.11
2023-01-23T22:32:11.873Z,98.31
2023-01-23T22:34:44.700Z,98.37
2023-01-23T22:37:18.539Z,98.71
2023-01-23T22:39:51.310Z,98.48
2023-01-23T22:42:24.030Z,98.78
2023-01-23T22:44:58.101Z,98.75
2023-01-23T22:47:30.831Z,98.97
2023-01-23T22:50:03.553Z,99.17
2023-01-23T22:52:36.310Z,99.08
2023-01-23T22:55:09.678Z,98.75
2023-01-23T22:57:43.073Z,99.01
2023-01-23T23:00:17.837Z,99.23
2023-01-23T23:02:50.538Z,99.43
2023-01-23T23:05:23.613Z,99.41
2023-01-23T23:07:56.420Z,99.67
2023-01-23T23:10:29.159Z,99.85
2023-01-23T23:13:01.955Z,99.79
2023-01-23T23:15:37.164Z,100.00
2023-01-23T23:18:09.881Z,100.00
2023-01-23T23:20:42.630Z,99.67
2023-01-23T23:23:15.470Z,99.80
2023-01-23T23:25:53.045Z,99.48
2023-01-23T23:28:27.550Z,99.97
2023-01-23T23:31:01.861Z,99.58
2023-01-23T23:33:34.743Z,99.83
2023-01-23T23:36:08.409Z,99.89
2023-01-23T23:38:41.224Z,100.00
2023-01-23T23:41:18.593Z,100.00
2023-01-23T23:43:51.535Z,99.88
2023-01-23T23:46:26.124Z,99.66
2023-01-23T23:48:59.068Z,99.59
2023-01-23T23:51:31.993Z,100.00
2023-01-23T23:54:04.823Z,99.89
2023-01-23T23:56:37.615Z,99.90
2023-01-23T23:59:15.580Z,99.76
